createdAt,value
2023-03-19T00:01:04.406Z,30.50
2023-03-19T00:02:18.266Z,31.00
2023-03-19T00:03:21.589Z,30.00
2023-03-19T00:04:26.285Z,37.00
2023-03-19T00:05:29.580Z,29.20
2023-03-19T00:06:32.670Z,34.60
2023-03-19T00:07:35.944Z,32.20
2023-03-19T00:08:38.917Z,31.80
2023-03-19T00:09:42.760Z,30.20
2023-03-19T00:10:45.634Z,32.10
2023-03-19T00:11:49.045Z,28.80
2023-03-19T00:12:52.243Z,31.80
2023-03-19T00:13:55.184Z,31.10
2023-03-19T00:14:58.094Z,29.70
2023-03-19T00:16:01.351Z,34.30
2023-03-19T00:17:04.399Z,34.70
2023-03-19T00:18:08.663Z,35.10
2023-03-19T00:19:12.160Z,38.10
2023-03-19T00:20:15.554Z,41.10
2023-03-19T00:21:18.380Z,44.40
2023-03-19T00:22:21.835Z,39.30
2023-03-19T00:23:24.808Z,44.80
2023-03-19T00:24:29.034Z,44.40
2023-03-19T00:25:32.805Z,45.20
2023-03-19T00:26:36.607Z,42.20
2023-03-19T00:27:39.568Z,43.30
2023-03-19T00:28:42.715Z,42.20
2023-03-19T00:29:45.731Z,41.50
2023-03-19T00:30:48.785Z,43.20
2023-03-19T00:31:51.717Z,41.30
2023-03-19T00:32:54.712Z,40.00
2023-03-19T00:33:59.253Z,41.80
2023-03-19T00:35:02.356Z,42.50
2023-03-19T00:36:06.950Z,40.50
2023-03-19T00:37:10.041Z,42.70
2023-03-19T00:38:12.932Z,42.30
2023-03-19T00:39:15.921Z,40.90
2023-03-19T00:40:19.088Z,41.20
2023-03-19T00:41:22.840Z,42.60
2023-03-19T00:42:26.208Z,41.60
2023-03-19T00:43:29.156Z,42.30
2023-03-19T00:44:32.155Z,37.60
2023-03-19T00:45:35.334Z,43.90
2023-03-19T00:46:38.357Z,42.80
2023-03-19T00:47:42.196Z,43.00
2023-03-19T00:48:45.180Z,42.20
2023-03-19T00:49:48.499Z,40.80
2023-03-19T00:50:51.659Z,42.30
2023-03-19T00:51:54.513Z,40.00
2023-03-19T00:52:57.350Z,43.80
2023-03-19T00:54:00.262Z,48.50
2023-03-19T00:55:03.251Z,44.50
2023-03-19T00:56:07.748Z,44.50
2023-03-19T00:57:10.946Z,47.70
2023-03-19T00:58:13.802Z,45.70
2023-03-19T00:59:16.613Z,47.10
2023-03-19T01:00:20.291Z,44.40
2023-03-19T01:01:23.395Z,40.80
2023-03-19T01:02:26.472Z,44.20
2023-03-19T01:03:30.886Z,47.20
2023-03-19T01:04:33.938Z,44.10
2023-03-19T01:06:39.831Z,50.50
2023-03-19T01:07:42.834Z,55.00
2023-03-19T01:08:45.733Z,54.30
2023-03-19T01:09:48.561Z,54.90
2023-03-19T01:10:51.708Z,51.10
2023-03-19T01:11:54.630Z,56.40
2023-03-19T01:12:57.675Z,58.80
2023-03-19T01:14:00.516Z,50.20
2023-03-19T01:15:05.051Z,51.80
2023-03-19T01:16:08.677Z,55.20
2023-03-19T01:17:12.090Z,48.90
2023-03-19T01:18:15.301Z,53.70
2023-03-19T01:19:18.373Z,50.80
2023-03-19T01:20:24.145Z,51.30
2023-03-19T01:21:31.060Z,50.00
2023-03-19T01:22:36.846Z,49.40
2023-03-19T01:23:41.021Z,50.60
2023-03-19T01:24:44.600Z,44.70
2023-03-19T01:25:47.736Z,48.90
2023-03-19T01:26:51.050Z,45.60
2023-03-19T01:28:10.475Z,47.20
2023-03-19T01:29:15.221Z,44.00
2023-03-19T01:31:56.339Z,47.00
2023-03-19T01:33:35.262Z,43.70
2023-03-19T01:34:45.155Z,44.60
2023-03-19T01:35:51.636Z,44.90
2023-03-19T01:36:56.047Z,45.50
2023-03-19T01:38:05.812Z,46.40
2023-03-19T01:39:09.312Z,45.10
2023-03-19T01:40:14.273Z,43.10
2023-03-19T01:41:17.334Z,44.10
2023-03-19T01:42:20.645Z,44.50
2023-03-19T01:43:43.840Z,43.10
2023-03-19T01:45:31.681Z,44.60
2023-03-19T01:46:55.780Z,47.90
2023-03-19T01:48:28.389Z,43.90
2023-03-19T01:49:40.536Z,47.80
2023-03-19T01:50:57.918Z,41.90
2023-03-19T01:52:07.376Z,42.60
2023-03-19T01:53:21.236Z,46.90
2023-03-19T01:54:34.604Z,44.30
2023-03-19T01:56:09.088Z,42.80
2023-03-19T01:57:25.581Z,43.40
2023-03-19T01:58:49.700Z,45.00
2023-03-19T02:00:05.014Z,42.70
2023-03-19T02:01:20.720Z,43.90
2023-03-19T02:02:24.046Z,45.80
2023-03-19T02:03:27.362Z,46.90
2023-03-19T02:04:43.501Z,45.80
2023-03-19T02:05:49.424Z,44.20
2023-03-19T02:06:57.240Z,44.00
2023-03-19T02:08:05.257Z,44.90
2023-03-19T02:09:09.452Z,43.30
2023-03-19T02:10:16.999Z,42.10
2023-03-19T02:11:21.939Z,47.10
2023-03-19T02:12:24.916Z,41.60
2023-03-19T02:13:28.291Z,46.10
2023-03-19T02:14:31.600Z,43.30
2023-03-19T02:15:34.639Z,45.60
2023-03-19T02:16:37.740Z,43.60
2023-03-19T02:17:42.338Z,39.30
2023-03-19T02:18:45.707Z,42.40
2023-03-19T02:19:51.637Z,45.60
2023-03-19T02:21:05.678Z,44.80
2023-03-19T02:22:11.990Z,46.30
2023-03-19T02:23:34.889Z,43.30
2023-03-19T02:24:58.870Z,42.00
2023-03-19T02:26:07.817Z,45.50
2023-03-19T02:27:11.742Z,42.20
2023-03-19T02:28:22.347Z,45.30
2023-03-19T02:29:26.132Z,41.50
2023-03-19T02:30:33.717Z,46.00
2023-03-19T02:31:41.046Z,48.00
2023-03-19T02:32:44.672Z,46.10
2023-03-19T02:34:20.109Z,44.90
2023-03-19T02:35:23.091Z,40.10
2023-03-19T02:36:31.872Z,40.40
2023-03-19T02:37:34.981Z,42.80
2023-03-19T02:38:39.018Z,40.10
2023-03-19T02:39:47.702Z,41.80
2023-03-19T02:40:59.695Z,41.20
2023-03-19T02:42:04.321Z,41.20
2023-03-19T02:43:07.375Z,40.10
2023-03-19T02:44:12.311Z,40.90
2023-03-19T02:45:15.892Z,43.20
2023-03-19T02:46:18.730Z,45.70
2023-03-19T02:47:21.742Z,43.30
2023-03-19T02:48:25.264Z,44.20
2023-03-19T02:49:28.093Z,43.90
2023-03-19T02:50:31.189Z,43.30
2023-03-19T02:51:34.113Z,41.20
2023-03-19T02:52:37.181Z,45.30
2023-03-19T02:53:40.121Z,41.30
2023-03-19T02:54:42.982Z,45.00
2023-03-19T02:55:45.914Z,45.10
2023-03-19T02:56:49.141Z,41.40
2023-03-19T02:57:52.074Z,42.50
2023-03-19T02:58:55.103Z,44.90
2023-03-19T02:59:58.549Z,45.70
2023-03-19T03:01:01.574Z,43.80
2023-03-19T03:02:07.006Z,45.50
2023-03-19T03:03:09.974Z,42.30
2023-03-19T03:04:15.130Z,45.50
2023-03-19T03:05:18.545Z,45.00
2023-03-19T03:06:21.644Z,43.20
2023-03-19T03:07:24.516Z,49.10
2023-03-19T03:08:28.408Z,43.20
2023-03-19T03:09:31.384Z,44.80
2023-03-19T03:10:35.318Z,48.60
2023-03-19T03:11:43.333Z,46.30
2023-03-19T03:12:46.675Z,44.20
2023-03-19T03:13:49.881Z,45.40
2023-03-19T03:14:52.704Z,43.40
2023-03-19T03:15:55.598Z,46.30
2023-03-19T03:16:58.737Z,46.60
2023-03-19T03:18:01.708Z,47.20
2023-03-19T03:19:06.014Z,48.20
2023-03-19T03:20:11.551Z,45.50
2023-03-19T03:21:14.494Z,46.30
2023-03-19T03:22:17.507Z,50.50
2023-03-19T03:23:22.081Z,46.50
2023-03-19T03:24:25.171Z,49.20
2023-03-19T03:25:28.435Z,47.90
2023-03-19T03:26:31.765Z,47.30
2023-03-19T03:27:34.963Z,46.90
2023-03-19T03:28:38.030Z,48.80
2023-03-19T03:29:41.663Z,47.20
2023-03-19T03:30:45.269Z,48.60
2023-03-19T03:31:48.207Z,43.00
2023-03-19T03:32:51.992Z,43.80
2023-03-19T03:33:54.916Z,49.00
2023-03-19T03:34:57.873Z,46.60
2023-03-19T03:36:01.282Z,47.00
2023-03-19T03:37:04.080Z,44.50
2023-03-19T03:38:06.919Z,47.40
2023-03-19T03:39:09.845Z,46.80
2023-03-19T03:40:14.402Z,45.30
2023-03-19T03:41:17.452Z,46.50
2023-03-19T03:42:21.145Z,46.70
2023-03-19T03:43:25.553Z,46.70
2023-03-19T03:44:28.497Z,45.20
2023-03-19T03:45:31.476Z,43.60
2023-03-19T03:46:34.590Z,47.30
2023-03-19T03:47:37.752Z,42.00
2023-03-19T03:48:41.192Z,44.10
2023-03-19T03:49:45.716Z,42.80
2023-03-19T03:50:49.297Z,46.40
2023-03-19T03:51:54.449Z,42.80
2023-03-19T03:52:57.464Z,44.20
2023-03-19T03:54:00.459Z,43.60
2023-03-19T03:55:03.568Z,42.50
2023-03-19T03:56:06.909Z,42.00
2023-03-19T03:57:10.005Z,44.00
2023-03-19T03:58:13.217Z,40.40
2023-03-19T03:59:16.574Z,42.60
2023-03-19T04:00:20.185Z,43.10
2023-03-19T04:01:23.185Z,45.20
2023-03-19T04:02:28.179Z,45.30
2023-03-19T04:03:31.419Z,46.40
2023-03-19T04:04:34.346Z,44.60
2023-03-19T04:05:38.029Z,42.30
2023-03-19T04:06:41.564Z,43.40
2023-03-19T04:08:13.985Z,38.50
2023-03-19T04:09:17.298Z,43.60
2023-03-19T04:10:20.431Z,39.30
2023-03-19T04:11:23.636Z,41.20
2023-03-19T04:12:27.024Z,39.40
2023-03-19T04:13:31.637Z,41.70
2023-03-19T04:14:34.482Z,42.30
2023-03-19T04:15:37.758Z,42.10
2023-03-19T04:16:44.345Z,42.30
2023-03-19T04:17:47.408Z,44.40
2023-03-19T04:18:50.712Z,44.50
2023-03-19T04:19:54.359Z,40.20
2023-03-19T04:20:57.888Z,42.40
2023-03-19T04:22:00.968Z,40.60
2023-03-19T04:23:04.238Z,41.60
2023-03-19T04:24:07.370Z,41.80
2023-03-19T04:25:10.928Z,36.70
2023-03-19T04:26:14.235Z,42.30
2023-03-19T04:27:17.187Z,43.70
2023-03-19T04:28:20.370Z,48.00
2023-03-19T04:29:23.833Z,41.20
2023-03-19T04:30:27.734Z,40.20
2023-03-19T04:31:31.511Z,45.10
2023-03-19T04:32:35.852Z,42.00
2023-03-19T04:33:39.167Z,44.30
2023-03-19T04:34:42.953Z,48.90
2023-03-19T04:35:45.912Z,41.00
2023-03-19T04:36:50.036Z,46.30
2023-03-19T04:37:53.035Z,46.30
2023-03-19T04:38:57.186Z,46.60
2023-03-19T04:40:01.070Z,44.30
2023-03-19T04:41:05.814Z,46.10
2023-03-19T04:42:11.483Z,42.90
2023-03-19T04:43:30.244Z,44.00
2023-03-19T04:44:34.089Z,44.60
2023-03-19T04:45:37.757Z,44.00
2023-03-19T04:46:42.153Z,43.10
2023-03-19T04:47:45.380Z,40.80
2023-03-19T04:48:48.988Z,43.30
2023-03-19T04:49:52.750Z,42.70
2023-03-19T04:50:57.454Z,45.10
2023-03-19T04:52:01.712Z,39.30
2023-03-19T04:53:04.729Z,42.90
2023-03-19T04:54:08.055Z,44.60
2023-03-19T04:55:11.256Z,41.80
2023-03-19T04:56:29.655Z,42.20
2023-03-19T04:57:32.802Z,42.80
2023-03-19T04:58:36.535Z,44.10
2023-03-19T04:59:39.836Z,42.80
2023-03-19T05:00:46.868Z,42.30
2023-03-19T05:01:53.040Z,45.00
2023-03-19T05:02:58.643Z,42.70
2023-03-19T05:04:03.423Z,40.10
2023-03-19T05:05:08.088Z,45.00
2023-03-19T05:06:11.930Z,40.40
2023-03-19T05:07:15.066Z,39.70
2023-03-19T05:08:18.361Z,44.00
2023-03-19T05:09:21.831Z,39.30
2023-03-19T05:10:25.116Z,40.00
2023-03-19T05:11:28.411Z,41.00
2023-03-19T05:12:44.124Z,40.80
2023-03-19T05:13:47.504Z,41.30
2023-03-19T05:14:50.442Z,43.10
2023-03-19T05:15:57.001Z,40.30
2023-03-19T05:17:00.602Z,40.90
2023-03-19T05:18:08.766Z,45.70
2023-03-19T05:19:30.021Z,36.50
2023-03-19T05:20:33.135Z,41.50
2023-03-19T05:21:41.007Z,40.10
2023-03-19T05:22:44.205Z,41.50
2023-03-19T05:23:47.134Z,37.00
2023-03-19T05:24:51.577Z,42.20
2023-03-19T05:25:54.715Z,39.60
2023-03-19T05:27:04.733Z,39.00
2023-03-19T05:28:08.935Z,41.70
2023-03-19T05:29:11.996Z,39.70
2023-03-19T05:30:27.926Z,38.00
2023-03-19T05:31:41.854Z,36.50
2023-03-19T05:32:47.051Z,39.60
2023-03-19T05:34:10.558Z,39.10
2023-03-19T05:35:14.378Z,39.60
2023-03-19T05:36:18.178Z,41.20
2023-03-19T05:37:44.253Z,42.30
2023-03-19T05:38:47.334Z,38.50
2023-03-19T05:39:54.849Z,37.00
2023-03-19T05:41:04.239Z,33.50
2023-03-19T05:42:12.810Z,41.70
2023-03-19T05:43:15.697Z,38.40
2023-03-19T05:44:19.509Z,44.30
2023-03-19T05:45:39.782Z,39.30
2023-03-19T05:46:49.711Z,38.90
2023-03-19T05:47:53.936Z,37.60
2023-03-19T05:48:57.503Z,39.30
2023-03-19T05:50:00.891Z,40.50
2023-03-19T05:51:04.660Z,37.70
2023-03-19T05:52:14.479Z,36.30
2023-03-19T05:53:17.474Z,42.20
2023-03-19T05:54:27.232Z,39.00
2023-03-19T05:55:46.650Z,42.10
2023-03-19T05:56:50.077Z,41.40
2023-03-19T05:58:08.077Z,56.80
2023-03-19T05:59:11.943Z,55.40
2023-03-19T06:00:18.273Z,62.50
2023-03-19T06:01:23.780Z,63.40
2023-03-19T06:02:27.474Z,59.40
2023-03-19T06:03:36.248Z,58.80
2023-03-19T06:04:42.859Z,56.10
2023-03-19T06:05:49.952Z,53.00
2023-03-19T06:07:00.162Z,51.70
2023-03-19T06:08:03.277Z,48.70
2023-03-19T06:09:25.120Z,48.70
2023-03-19T06:10:32.136Z,40.90
2023-03-19T06:11:36.779Z,43.30
2023-03-19T06:13:00.021Z,41.60
2023-03-19T06:14:14.013Z,40.50
2023-03-19T06:15:18.635Z,43.10
2023-03-19T06:16:21.721Z,42.60
2023-03-19T06:17:31.442Z,39.00
2023-03-19T06:18:38.358Z,41.80
2023-03-19T06:19:44.961Z,38.10
2023-03-19T06:20:48.320Z,38.00
2023-03-19T06:21:52.699Z,40.70
2023-03-19T06:22:55.544Z,38.40
2023-03-19T06:23:59.246Z,38.50
2023-03-19T06:25:07.794Z,38.80
2023-03-19T06:26:12.491Z,38.10
2023-03-19T06:27:27.465Z,37.90
2023-03-19T06:28:42.689Z,39.70
2023-03-19T06:29:45.779Z,38.50
2023-03-19T06:30:59.281Z,41.90
2023-03-19T06:32:22.050Z,33.80
2023-03-19T06:33:32.269Z,36.90
2023-03-19T06:34:36.512Z,41.20
2023-03-19T06:35:39.665Z,37.80
2023-03-19T06:36:42.894Z,37.10
2023-03-19T06:37:47.640Z,36.50
2023-03-19T06:38:51.194Z,40.20
2023-03-19T06:39:54.860Z,39.20
2023-03-19T06:40:58.097Z,39.30
2023-03-19T06:42:03.907Z,37.30
2023-03-19T06:43:08.854Z,40.40
2023-03-19T06:44:12.199Z,36.30
2023-03-19T06:45:16.603Z,39.20
2023-03-19T06:46:19.708Z,41.30
2023-03-19T06:47:23.164Z,37.40
2023-03-19T06:48:26.034Z,36.30
2023-03-19T06:49:29.157Z,41.80
2023-03-19T06:50:33.528Z,40.60
2023-03-19T06:51:37.271Z,43.20
2023-03-19T06:52:41.027Z,40.60
2023-03-19T06:53:43.975Z,41.00
2023-03-19T06:54:47.208Z,37.20
2023-03-19T06:55:50.398Z,41.20
2023-03-19T06:56:53.481Z,40.90
2023-03-19T06:57:57.022Z,42.30
2023-03-19T06:59:00.252Z,39.60
2023-03-19T07:00:06.150Z,40.20
2023-03-19T07:01:09.625Z,39.10
2023-03-19T07:02:13.068Z,36.80
2023-03-19T07:03:16.422Z,39.40
2023-03-19T07:04:19.713Z,37.20
2023-03-19T07:05:23.300Z,39.50
2023-03-19T07:06:26.732Z,40.20
2023-03-19T07:07:29.823Z,42.90
2023-03-19T07:08:33.593Z,39.80
2023-03-19T07:09:37.153Z,39.60
2023-03-19T07:10:40.807Z,43.90
2023-03-19T07:11:44.313Z,41.80
2023-03-19T07:12:47.771Z,35.70
2023-03-19T07:13:51.148Z,38.70
2023-03-19T07:14:59.204Z,42.50
2023-03-19T07:16:02.974Z,41.30
2023-03-19T07:17:07.563Z,41.30
2023-03-19T07:18:12.435Z,39.20
2023-03-19T07:19:15.706Z,41.80
2023-03-19T07:20:19.681Z,38.20
2023-03-19T07:21:23.783Z,40.90
2023-03-19T07:22:27.078Z,39.30
2023-03-19T07:23:30.576Z,39.80
2023-03-19T07:24:33.806Z,42.20
2023-03-19T07:25:37.098Z,40.70
2023-03-19T07:26:40.653Z,42.00
2023-03-19T07:27:44.870Z,42.30
2023-03-19T07:28:49.009Z,42.20
2023-03-19T07:29:52.278Z,40.40
2023-03-19T07:30:56.317Z,40.70
2023-03-19T07:31:59.658Z,41.50
2023-03-19T07:33:02.954Z,40.10
2023-03-19T07:34:09.191Z,37.40
2023-03-19T07:35:12.077Z,38.70
2023-03-19T07:36:14.993Z,40.20
2023-03-19T07:37:20.137Z,41.90
2023-03-19T07:38:24.306Z,38.90
2023-03-19T07:39:28.442Z,39.50
2023-03-19T07:40:32.152Z,41.60
2023-03-19T07:41:35.576Z,44.00
2023-03-19T07:42:38.766Z,42.80
2023-03-19T07:43:42.474Z,39.90
2023-03-19T07:44:45.579Z,40.90
2023-03-19T07:45:48.759Z,41.60
2023-03-19T07:46:52.120Z,39.50
2023-03-19T07:47:56.445Z,42.60
2023-03-19T07:48:59.577Z,43.50
2023-03-19T07:50:02.706Z,44.80
2023-03-19T07:51:07.445Z,41.90
2023-03-19T07:52:14.350Z,42.80
2023-03-19T07:53:17.568Z,44.20
2023-03-19T07:54:20.588Z,42.80
2023-03-19T07:55:23.843Z,41.30
2023-03-19T07:56:26.762Z,44.70
2023-03-19T07:57:29.946Z,44.80
2023-03-19T07:58:33.336Z,46.90
2023-03-19T07:59:36.446Z,45.20
2023-03-19T08:00:42.857Z,40.40
2023-03-19T08:01:48.440Z,43.90
2023-03-19T08:02:51.602Z,43.10
2023-03-19T08:03:54.891Z,45.30
2023-03-19T08:04:58.617Z,42.70
2023-03-19T08:06:01.591Z,44.10
2023-03-19T08:07:04.873Z,42.20
2023-03-19T08:08:08.086Z,40.50
2023-03-19T08:09:11.619Z,38.20
2023-03-19T08:10:18.236Z,39.70
2023-03-19T08:12:30.542Z,39.30
2023-03-19T08:13:35.261Z,38.80
2023-03-19T08:14:42.999Z,43.60
2023-03-19T08:15:48.067Z,41.90
2023-03-19T08:16:51.949Z,40.80
2023-03-19T08:18:00.498Z,42.60
2023-03-19T08:19:04.176Z,39.30
2023-03-19T08:20:10.153Z,46.30
2023-03-19T08:21:13.276Z,42.10
2023-03-19T08:22:17.252Z,37.60
2023-03-19T08:23:20.875Z,38.30
2023-03-19T08:24:24.244Z,44.30
2023-03-19T08:25:27.788Z,39.80
2023-03-19T08:26:32.932Z,42.30
2023-03-19T08:27:36.697Z,47.30
2023-03-19T08:28:39.986Z,42.50
2023-03-19T08:29:43.031Z,41.60
2023-03-19T08:30:46.278Z,42.00
2023-03-19T08:31:49.424Z,39.30
2023-03-19T08:32:52.711Z,41.20
2023-03-19T08:33:56.525Z,42.20
2023-03-19T08:34:59.446Z,41.30
2023-03-19T08:36:11.955Z,42.30
2023-03-19T08:37:14.999Z,39.60
2023-03-19T08:38:18.556Z,42.70
2023-03-19T08:39:21.776Z,43.00
2023-03-19T08:40:25.345Z,43.70
2023-03-19T08:41:28.288Z,47.40
2023-03-19T08:42:31.593Z,48.30
2023-03-19T08:43:36.875Z,44.80
2023-03-19T08:44:40.072Z,39.50
2023-03-19T08:45:43.692Z,41.90
2023-03-19T08:46:47.055Z,39.80
2023-03-19T08:47:50.386Z,41.60
2023-03-19T08:48:53.807Z,42.90
2023-03-19T08:49:57.101Z,39.40
2023-03-19T08:51:03.045Z,40.10
2023-03-19T08:52:06.576Z,45.80
2023-03-19T08:53:09.495Z,37.60
2023-03-19T08:54:13.900Z,39.60
2023-03-19T08:55:18.110Z,38.90
2023-03-19T08:56:21.197Z,39.60
2023-03-19T08:57:24.137Z,40.90
2023-03-19T08:58:28.265Z,39.50
2023-03-19T08:59:34.083Z,39.90
2023-03-19T09:00:37.365Z,40.10
2023-03-19T09:01:40.903Z,41.00
2023-03-19T09:02:43.919Z,38.30
2023-03-19T09:03:47.062Z,35.50
2023-03-19T09:04:49.980Z,34.90
2023-03-19T09:05:53.213Z,35.60
2023-03-19T09:06:56.157Z,38.60
2023-03-19T09:07:59.272Z,39.80
2023-03-19T09:09:02.594Z,34.40
2023-03-19T09:10:06.236Z,36.10
2023-03-19T09:11:10.548Z,38.70
2023-03-19T09:12:16.745Z,38.10
2023-03-19T09:13:19.926Z,39.10
2023-03-19T09:14:23.173Z,33.30
2023-03-19T09:15:27.066Z,32.80
2023-03-19T09:16:31.316Z,33.50
2023-03-19T09:17:34.455Z,29.20
2023-03-19T09:18:37.379Z,32.70
2023-03-19T09:19:40.965Z,33.00
2023-03-19T09:20:44.043Z,34.60
2023-03-19T09:21:47.108Z,30.90
2023-03-19T09:22:49.946Z,31.50
2023-03-19T09:23:52.966Z,32.00
2023-03-19T09:24:55.832Z,29.50
2023-03-19T09:25:59.199Z,26.80
2023-03-19T09:27:03.079Z,30.90
2023-03-19T09:28:06.961Z,31.60
2023-03-19T09:29:09.891Z,29.60
2023-03-19T09:30:13.400Z,28.50
2023-03-19T09:31:16.631Z,30.20
2023-03-19T09:32:19.845Z,33.00
2023-03-19T09:33:22.862Z,31.80
2023-03-19T09:34:25.892Z,35.90
2023-03-19T09:35:31.346Z,36.30
2023-03-19T09:36:38.039Z,32.10
2023-03-19T09:37:41.390Z,49.50
2023-03-19T09:38:44.357Z,37.10
2023-03-19T09:39:47.185Z,35.80
2023-03-19T09:41:07.184Z,35.50
2023-03-19T09:42:18.944Z,33.60
2023-03-19T09:43:39.667Z,33.80
2023-03-19T09:44:45.638Z,30.30
2023-03-19T09:45:48.979Z,33.00
2023-03-19T09:47:13.162Z,31.20
2023-03-19T09:48:23.284Z,37.60
2023-03-19T09:49:30.050Z,36.40
2023-03-19T09:50:38.133Z,31.80
2023-03-19T09:51:49.079Z,35.00
2023-03-19T09:53:31.262Z,32.30
2023-03-19T09:54:43.296Z,33.70
2023-03-19T09:55:52.558Z,32.10
2023-03-19T09:56:56.037Z,36.20
2023-03-19T09:58:01.003Z,36.60
2023-03-19T09:59:03.942Z,31.90
2023-03-19T10:00:22.475Z,34.40
2023-03-19T10:01:37.257Z,34.70
2023-03-19T10:02:42.807Z,33.30
2023-03-19T10:04:10.902Z,37.40
2023-03-19T10:05:20.353Z,33.70
2023-03-19T10:06:42.169Z,36.70
2023-03-19T10:07:51.042Z,31.00
2023-03-19T10:08:58.960Z,31.20
2023-03-19T10:10:30.283Z,34.50
2023-03-19T10:12:06.106Z,34.60
2023-03-19T10:13:20.152Z,32.70
2023-03-19T10:14:38.290Z,35.40
2023-03-19T10:15:44.716Z,35.90
2023-03-19T10:16:52.082Z,33.80
2023-03-19T10:18:13.625Z,35.20
2023-03-19T10:19:24.525Z,32.10
2023-03-19T10:20:35.214Z,30.20
2023-03-19T10:21:47.024Z,31.80
2023-03-19T10:23:13.281Z,32.50
2023-03-19T10:24:32.002Z,35.70
2023-03-19T10:25:41.470Z,34.10
2023-03-19T10:26:45.876Z,29.60
2023-03-19T10:27:56.661Z,34.50
2023-03-19T10:29:14.762Z,36.00
2023-03-19T10:30:19.479Z,33.20
2023-03-19T10:31:26.006Z,31.50
2023-03-19T10:32:44.086Z,34.20
2023-03-19T10:34:23.551Z,32.20
2023-03-19T10:35:56.170Z,34.00
2023-03-19T10:37:07.940Z,33.10
2023-03-19T10:38:22.767Z,33.00
2023-03-19T10:39:25.785Z,30.50
2023-03-19T10:40:37.260Z,33.40
2023-03-19T10:41:45.378Z,33.40
2023-03-19T10:43:16.735Z,31.50
2023-03-19T10:44:33.348Z,28.50
2023-03-19T10:45:39.026Z,34.10
2023-03-19T10:46:42.364Z,29.80
2023-03-19T10:47:45.271Z,32.50
2023-03-19T10:48:48.569Z,31.60
2023-03-19T10:49:52.460Z,31.00
2023-03-19T10:50:55.250Z,30.90
2023-03-19T10:51:58.648Z,29.70
2023-03-19T10:53:25.348Z,32.80
2023-03-19T10:54:30.496Z,29.00
2023-03-19T10:55:34.420Z,30.10
2023-03-19T10:56:46.611Z,30.00
2023-03-19T10:57:51.706Z,30.70
2023-03-19T10:59:01.388Z,29.00
2023-03-19T11:00:18.005Z,33.70
2023-03-19T11:01:21.250Z,28.70
2023-03-19T11:02:31.105Z,27.40
2023-03-19T11:03:49.454Z,32.50
2023-03-19T11:05:22.031Z,27.00
2023-03-19T11:06:38.946Z,28.70
2023-03-19T11:07:41.930Z,27.70
2023-03-19T11:08:55.978Z,32.90
2023-03-19T11:09:59.259Z,27.30
2023-03-19T11:11:02.613Z,28.50
2023-03-19T11:12:19.638Z,27.50
2023-03-19T11:13:27.198Z,29.30
2023-03-19T11:14:35.813Z,26.50
2023-03-19T11:15:39.475Z,27.60
2023-03-19T11:16:54.283Z,22.30
2023-03-19T11:18:06.803Z,29.80
2023-03-19T11:19:20.433Z,25.20
2023-03-19T11:20:29.275Z,27.00
2023-03-19T11:21:33.011Z,21.90
2023-03-19T11:22:37.996Z,27.00
2023-03-19T11:23:42.086Z,27.50
2023-03-19T11:24:57.376Z,20.60
2023-03-19T11:26:04.166Z,23.30
2023-03-19T11:27:11.684Z,22.00
2023-03-19T11:28:20.991Z,18.90
2023-03-19T11:29:28.251Z,18.40
2023-03-19T11:30:46.608Z,19.80
2023-03-19T11:32:21.589Z,17.30
2023-03-19T11:33:47.831Z,19.30
2023-03-19T11:35:02.366Z,20.10
2023-03-19T11:36:12.063Z,20.30
2023-03-19T11:37:39.262Z,19.80
2023-03-19T11:38:54.100Z,19.30
2023-03-19T11:40:20.409Z,18.60
2023-03-19T11:41:41.947Z,20.80
2023-03-19T11:42:47.826Z,21.50
2023-03-19T11:43:57.537Z,18.00
2023-03-19T11:45:17.568Z,20.90
2023-03-19T11:46:34.503Z,19.90
2023-03-19T11:47:59.668Z,17.20
2023-03-19T11:49:05.467Z,18.50
2023-03-19T11:50:30.453Z,19.70
2023-03-19T11:52:00.822Z,18.20
2023-03-19T11:54:31.742Z,18.00
2023-03-19T11:55:43.594Z,20.80
2023-03-19T11:56:55.905Z,18.60
2023-03-19T11:58:20.104Z,21.30
2023-03-19T11:59:40.289Z,19.10
2023-03-19T12:00:57.290Z,17.70
2023-03-19T12:02:19.211Z,19.60
2023-03-19T12:03:38.231Z,18.10
2023-03-19T12:05:16.453Z,17.60
2023-03-19T12:06:25.423Z,16.50
2023-03-19T12:07:47.049Z,19.60
2023-03-19T12:09:12.644Z,20.20
2023-03-19T12:10:33.611Z,24.80
2023-03-19T12:11:54.660Z,20.80
2023-03-19T12:13:15.356Z,19.30
2023-03-19T12:14:30.275Z,17.30
2023-03-19T12:16:02.866Z,17.30
2023-03-19T12:17:45.951Z,16.70
2023-03-19T12:19:11.714Z,18.70
2023-03-19T12:20:17.947Z,19.40
2023-03-19T12:21:40.552Z,20.60
2023-03-19T12:22:55.339Z,17.10
2023-03-19T12:24:04.553Z,18.70
2023-03-19T12:25:26.503Z,19.10
2023-03-19T12:26:54.521Z,18.30
2023-03-19T12:28:45.962Z,20.10
2023-03-19T12:30:02.035Z,17.70
2023-03-19T12:31:37.427Z,19.20
2023-03-19T12:32:43.521Z,23.70
2023-03-19T12:33:57.692Z,23.80
2023-03-19T12:35:11.851Z,16.20
2023-03-19T12:36:28.207Z,13.50
2023-03-19T12:37:45.253Z,31.50
2023-03-19T12:38:51.809Z,22.10
2023-03-19T12:40:15.199Z,19.20
2023-03-19T12:41:24.854Z,19.30
2023-03-19T12:42:33.937Z,16.30
2023-03-19T12:43:54.097Z,14.20
2023-03-19T12:44:59.546Z,16.40
2023-03-19T12:46:10.491Z,14.90
2023-03-19T12:47:26.939Z,15.00
2023-03-19T12:48:39.406Z,17.70
2023-03-19T12:49:52.407Z,18.10
2023-03-19T12:51:00.027Z,14.50
2023-03-19T12:52:24.024Z,14.80
2023-03-19T12:53:43.520Z,18.40
2023-03-19T12:54:55.377Z,17.90
2023-03-19T12:56:07.267Z,16.30
2023-03-19T12:57:18.574Z,18.20
2023-03-19T12:58:51.217Z,16.00
2023-03-19T13:00:20.481Z,15.30
2023-03-19T13:01:38.832Z,17.20
2023-03-19T13:02:57.481Z,17.30
2023-03-19T13:04:08.622Z,14.30
2023-03-19T13:05:37.508Z,18.80
2023-03-19T13:06:47.898Z,15.10
2023-03-19T13:08:17.104Z,17.50
2023-03-19T13:09:36.929Z,16.30
2023-03-19T13:10:40.384Z,18.00
2023-03-19T13:12:01.646Z,15.00
2023-03-19T13:13:25.649Z,14.40
2023-03-19T13:14:45.155Z,17.70
2023-03-19T13:15:52.859Z,17.70
2023-03-19T13:17:02.178Z,15.00
2023-03-19T13:18:33.354Z,17.20
2023-03-19T13:19:54.443Z,17.70
2023-03-19T13:21:23.507Z,18.50
2023-03-19T13:22:32.253Z,17.60
2023-03-19T13:23:38.406Z,16.80
2023-03-19T13:24:45.341Z,15.80
2023-03-19T13:25:49.429Z,19.20
2023-03-19T13:26:54.741Z,19.60
2023-03-19T13:27:57.712Z,16.60
2023-03-19T13:29:06.990Z,15.70
2023-03-19T13:30:10.261Z,15.10
2023-03-19T13:31:21.886Z,18.70
2023-03-19T13:32:40.749Z,19.70
2023-03-19T13:33:53.696Z,14.30
2023-03-19T13:35:34.112Z,12.90
2023-03-19T13:36:42.120Z,15.40
2023-03-19T13:37:55.816Z,17.40
2023-03-19T13:39:01.584Z,15.60
2023-03-19T13:40:06.032Z,13.20
2023-03-19T13:41:54.898Z,15.90
2023-03-19T13:42:57.792Z,15.80
2023-03-19T13:44:21.471Z,17.90
2023-03-19T13:45:37.669Z,16.10
2023-03-19T13:46:45.193Z,15.10
2023-03-19T13:47:51.079Z,15.40
2023-03-19T13:48:54.597Z,17.20
2023-03-19T13:50:08.803Z,14.20
2023-03-19T13:51:18.078Z,15.50
2023-03-19T13:52:21.113Z,14.80
2023-03-19T13:53:53.312Z,14.90
2023-03-19T13:55:25.197Z,21.90
2023-03-19T13:56:30.699Z,15.90
2023-03-19T13:57:36.239Z,15.90
2023-03-19T13:58:54.130Z,14.60
2023-03-19T13:59:57.354Z,15.90
2023-03-19T14:01:00.948Z,13.70
2023-03-19T14:02:24.199Z,20.80
2023-03-19T14:03:31.139Z,15.20
2023-03-19T14:04:38.027Z,17.00
2023-03-19T14:05:47.988Z,15.70
2023-03-19T14:06:55.419Z,14.90
2023-03-19T14:07:58.277Z,16.80
2023-03-19T14:09:02.059Z,16.40
2023-03-19T14:10:08.603Z,15.40
2023-03-19T14:11:22.344Z,14.90
2023-03-19T14:12:39.039Z,16.40
2023-03-19T14:13:48.169Z,15.60
2023-03-19T14:14:57.082Z,15.40
2023-03-19T14:16:21.384Z,15.70
2023-03-19T14:17:54.087Z,14.30
2023-03-19T14:19:00.437Z,14.50
2023-03-19T14:20:13.243Z,16.50
2023-03-19T14:21:56.332Z,15.10
2023-03-19T14:23:08.999Z,15.90
2023-03-19T14:26:17.309Z,16.60
2023-03-19T14:27:33.080Z,16.00
2023-03-19T14:28:41.588Z,20.70
2023-03-19T14:29:46.547Z,25.30
2023-03-19T14:30:50.396Z,26.20
2023-03-19T14:31:57.413Z,31.80
2023-03-19T14:33:06.116Z,27.50
2023-03-19T14:34:12.407Z,29.90
2023-03-19T14:35:20.310Z,32.70
2023-03-19T14:36:23.484Z,35.40
2023-03-19T14:37:34.624Z,35.70
2023-03-19T14:38:49.980Z,34.40
2023-03-19T14:40:02.883Z,33.10
2023-03-19T14:41:11.468Z,35.10
2023-03-19T14:42:28.208Z,34.90
2023-03-19T14:44:23.041Z,38.50
2023-03-19T14:45:28.600Z,33.20
2023-03-19T14:47:01.312Z,34.60